createdAt,value
2023-05-18T00:00:23.600Z,5.07
2023-05-18T00:04:05.562Z,6.00
2023-05-18T00:07:47.647Z,5.65
2023-05-18T00:11:29.550Z,5.13
2023-05-18T00:15:11.567Z,5.60
2023-05-18T00:18:54.737Z,5.65
2023-05-18T00:22:36.721Z,5.70
2023-05-18T00:26:18.557Z,5.88
2023-05-18T00:30:00.645Z,6.20
2023-05-18T00:33:42.587Z,5.85
2023-05-18T00:37:24.520Z,5.57
2023-05-18T00:41:06.402Z,5.95
2023-05-18T00:44:48.360Z,6.63
2023-05-18T00:48:30.434Z,6.10
2023-05-18T00:52:12.329Z,4.90
2023-05-18T00:55:54.149Z,5.30
2023-05-18T00:59:37.070Z,5.90
2023-05-18T01:03:21.238Z,5.80
2023-05-18T01:07:06.776Z,5.32
2023-05-18T01:10:58.797Z,5.50
2023-05-18T01:15:08.889Z,5.85
2023-05-18T01:19:01.165Z,5.47
2023-05-18T01:23:01.667Z,5.07
2023-05-18T01:26:46.695Z,5.15
2023-05-18T01:30:28.873Z,5.45
2023-05-18T01:34:10.911Z,5.63
2023-05-18T01:37:52.762Z,5.60
2023-05-18T01:41:39.371Z,5.43
2023-05-18T01:45:29.201Z,4.85
2023-05-18T01:49:24.023Z,5.13
2023-05-18T01:53:24.639Z,4.18
2023-05-18T01:57:08.336Z,5.25
2023-05-18T02:00:51.501Z,5.18
2023-05-18T02:04:35.168Z,4.93
2023-05-18T02:08:17.635Z,5.00
2023-05-18T02:11:59.562Z,5.40
2023-05-18T02:15:41.402Z,4.72
2023-05-18T02:19:25.366Z,5.53
2023-05-18T02:23:07.435Z,5.05
2023-05-18T02:26:49.277Z,5.43
2023-05-18T02:30:33.335Z,5.53
2023-05-18T02:34:15.585Z,4.68
2023-05-18T02:37:58.316Z,4.97
2023-05-18T02:41:40.188Z,5.50
2023-05-18T02:45:22.145Z,5.75
2023-05-18T02:49:03.953Z,5.18
2023-05-18T02:52:45.796Z,5.15
2023-05-18T02:56:28.688Z,5.38
2023-05-18T03:00:11.867Z,6.53
2023-05-18T03:03:54.580Z,5.43
2023-05-18T03:07:36.443Z,6.60
2023-05-18T03:11:18.280Z,5.68
2023-05-18T03:15:00.173Z,5.07
2023-05-18T03:18:42.263Z,6.13
2023-05-18T03:22:24.144Z,5.50
2023-05-18T03:26:11.353Z,5.38
2023-05-18T03:29:54.164Z,6.32
2023-05-18T03:33:36.057Z,6.30
2023-05-18T03:37:18.096Z,5.22
2023-05-18T03:40:59.968Z,5.82
2023-05-18T03:44:41.878Z,5.13
2023-05-18T03:48:24.795Z,5.00
2023-05-18T03:52:07.193Z,5.15
2023-05-18T03:55:49.584Z,5.18
2023-05-18T03:59:31.415Z,5.28
2023-05-18T04:03:14.874Z,5.07
2023-05-18T04:06:57.179Z,5.00
2023-05-18T04:10:39.009Z,6.03
2023-05-18T04:14:21.055Z,5.05
2023-05-18T04:18:03.086Z,4.75
2023-05-18T04:21:47.536Z,5.53
2023-05-18T04:25:29.613Z,4.80
2023-05-18T04:29:13.496Z,5.43
2023-05-18T04:32:58.183Z,6.15
2023-05-18T04:36:42.765Z,4.53
2023-05-18T04:40:25.401Z,5.97
2023-05-18T04:44:07.530Z,5.20
2023-05-18T04:47:54.040Z,4.95
2023-05-18T04:51:37.018Z,5.97
2023-05-18T04:55:26.178Z,4.97
2023-05-18T04:59:09.570Z,5.03
2023-05-18T05:02:51.709Z,5.03
2023-05-18T05:06:36.219Z,5.95
2023-05-18T05:10:19.241Z,5.35
2023-05-18T05:14:02.887Z,5.45
2023-05-18T05:17:46.270Z,6.50
2023-05-18T05:21:28.460Z,6.47
2023-05-18T05:25:10.637Z,5.03
2023-05-18T05:28:52.528Z,5.55
2023-05-18T05:32:36.141Z,5.55
2023-05-18T05:36:18.249Z,7.10
2023-05-18T05:40:00.163Z,5.88
2023-05-18T05:43:42.085Z,5.75
2023-05-18T05:47:23.945Z,6.07
2023-05-18T05:51:05.946Z,6.35
2023-05-18T05:54:48.037Z,6.20
2023-05-18T05:58:29.950Z,6.10
2023-05-18T06:02:12.394Z,7.07
2023-05-18T06:05:54.434Z,6.78
2023-05-18T06:09:36.360Z,6.40
2023-05-18T06:13:18.291Z,7.10
2023-05-18T06:17:00.138Z,6.65
2023-05-18T06:20:42.053Z,7.28
2023-05-18T06:24:24.054Z,7.05
2023-05-18T06:28:06.004Z,8.02
2023-05-18T06:31:47.961Z,6.78
2023-05-18T06:35:29.998Z,7.43
2023-05-18T06:39:12.133Z,6.43
2023-05-18T06:42:54.022Z,7.43
2023-05-18T06:46:35.932Z,7.30
2023-05-18T06:50:17.925Z,7.05
2023-05-18T06:53:59.750Z,7.80
2023-05-18T06:57:41.897Z,7.80
2023-05-18T07:01:23.962Z,8.20
2023-05-18T07:05:09.191Z,7.32
2023-05-18T07:08:51.198Z,8.73
2023-05-18T07:12:33.084Z,8.57
2023-05-18T07:16:14.990Z,8.63
2023-05-18T07:19:56.883Z,7.85
2023-05-18T07:23:38.695Z,9.40
2023-05-18T07:27:20.808Z,8.93
2023-05-18T07:31:04.585Z,7.68
2023-05-18T07:34:49.592Z,9.00
2023-05-18T07:38:31.720Z,7.38
2023-05-18T07:42:13.582Z,6.72
2023-05-18T07:45:55.508Z,7.88
2023-05-18T07:49:39.141Z,6.85
2023-05-18T07:53:20.958Z,6.97
2023-05-18T07:57:04.263Z,7.25
2023-05-18T08:00:46.256Z,7.05
2023-05-18T08:04:29.022Z,7.07
2023-05-18T08:08:15.108Z,7.65
2023-05-18T08:11:58.112Z,8.40
2023-05-18T08:15:41.412Z,7.65
2023-05-18T08:19:23.488Z,6.60
2023-05-18T08:23:05.588Z,7.28
2023-05-18T08:26:47.480Z,6.88
2023-05-18T08:30:29.551Z,7.13
2023-05-18T08:34:11.817Z,6.82
2023-05-18T08:37:54.729Z,5.28
2023-05-18T08:41:42.206Z,5.32
2023-05-18T08:45:36.548Z,5.22
2023-05-18T08:49:19.550Z,5.13
2023-05-18T08:53:05.247Z,6.18
2023-05-18T08:56:48.735Z,6.10
2023-05-18T09:00:32.547Z,5.65
2023-05-18T09:04:15.218Z,6.22
2023-05-18T09:07:57.735Z,5.25
2023-05-18T09:11:40.012Z,4.63
2023-05-18T09:15:22.062Z,5.10
2023-05-18T09:19:04.131Z,5.57
2023-05-18T09:22:46.230Z,4.07
2023-05-18T09:26:28.262Z,5.63
2023-05-18T09:30:13.629Z,4.32
2023-05-18T09:33:56.801Z,4.67
2023-05-18T09:37:41.880Z,4.07
2023-05-18T09:41:27.129Z,3.85
2023-05-18T09:45:20.726Z,2.95
2023-05-18T09:49:04.372Z,3.50
2023-05-18T09:52:47.244Z,3.53
2023-05-18T09:56:29.414Z,3.90
2023-05-18T10:00:12.830Z,3.40
2023-05-18T10:04:04.216Z,4.18
2023-05-18T10:07:47.002Z,1.92
2023-05-18T10:11:32.261Z,2.50
2023-05-18T10:15:19.949Z,2.75
2023-05-18T10:19:03.718Z,2.80
2023-05-18T10:22:47.782Z,2.92
2023-05-18T10:26:33.835Z,2.95
2023-05-18T10:30:20.200Z,2.80
2023-05-18T10:34:03.959Z,2.17
2023-05-18T10:37:50.204Z,2.67
2023-05-18T10:41:34.357Z,2.25
2023-05-18T10:45:16.673Z,1.80
2023-05-18T10:49:00.705Z,2.22
2023-05-18T10:52:45.823Z,2.67
2023-05-18T10:56:29.148Z,1.55
2023-05-18T11:00:11.373Z,1.70
2023-05-18T11:03:53.318Z,2.13
2023-05-18T11:07:35.561Z,1.92
2023-05-18T11:11:19.537Z,1.38
2023-05-18T11:15:01.682Z,2.10
2023-05-18T11:18:43.608Z,1.92
2023-05-18T11:22:49.809Z,1.90
2023-05-18T11:26:31.763Z,1.90
2023-05-18T11:30:30.662Z,1.98
2023-05-18T11:34:45.161Z,2.22
2023-05-18T11:38:54.241Z,1.95
2023-05-18T11:42:36.600Z,2.25
2023-05-18T11:46:18.835Z,2.08
2023-05-18T11:50:01.083Z,1.70
2023-05-18T11:53:43.036Z,2.10
2023-05-18T11:57:35.109Z,1.77
2023-05-18T12:01:17.476Z,1.70
2023-05-18T12:05:01.016Z,2.08
2023-05-18T12:08:44.794Z,1.80
2023-05-18T12:12:27.756Z,1.52
2023-05-18T12:16:11.325Z,2.15
2023-05-18T12:19:53.358Z,2.20
2023-05-18T12:23:37.506Z,1.80
2023-05-18T12:27:22.991Z,2.13
2023-05-18T12:31:08.465Z,2.40
2023-05-18T12:34:51.545Z,2.00
2023-05-18T12:38:34.378Z,2.08
2023-05-18T12:42:16.313Z,2.03
2023-05-18T12:46:04.522Z,1.75
2023-05-18T12:49:49.765Z,2.50
2023-05-18T12:53:44.076Z,2.47
2023-05-18T12:57:31.138Z,2.67
2023-05-18T13:01:14.418Z,2.58
2023-05-18T13:05:10.550Z,2.65
2023-05-18T13:08:58.338Z,3.40
2023-05-18T13:12:44.585Z,3.90
2023-05-18T13:16:27.461Z,4.30
2023-05-18T13:20:16.137Z,4.00
2023-05-18T13:23:58.068Z,4.10
2023-05-18T13:27:40.030Z,4.63
2023-05-18T13:31:22.590Z,4.22
2023-05-18T13:35:05.899Z,4.25
2023-05-18T13:38:47.784Z,4.80
2023-05-18T13:42:29.664Z,4.78
2023-05-18T13:46:11.572Z,4.85
2023-05-18T13:49:53.515Z,4.55
2023-05-18T13:53:36.167Z,5.15
2023-05-18T13:57:19.624Z,4.70
2023-05-18T14:01:04.136Z,4.53
2023-05-18T14:04:46.232Z,5.03
2023-05-18T14:08:28.071Z,4.75
2023-05-18T14:12:11.082Z,4.20
2023-05-18T14:15:53.203Z,4.38
2023-05-18T14:19:35.355Z,4.35
2023-05-18T14:23:17.260Z,4.50
2023-05-18T14:26:59.258Z,5.28
2023-05-18T14:30:41.287Z,4.75
2023-05-18T14:34:23.246Z,4.50
2023-05-18T14:38:05.141Z,4.90
2023-05-18T14:41:47.383Z,3.75
2023-05-18T14:45:29.339Z,4.60
2023-05-18T14:49:11.335Z,4.13
2023-05-18T14:52:54.961Z,4.25
2023-05-18T14:56:37.030Z,4.45
2023-05-18T15:00:19.163Z,4.00
2023-05-18T15:04:01.244Z,3.47
2023-05-18T15:07:43.157Z,3.78
2023-05-18T15:11:25.082Z,3.97
2023-05-18T15:15:07.625Z,3.58
2023-05-18T15:18:49.543Z,3.67
2023-05-18T15:22:32.226Z,3.08
2023-05-18T15:26:14.239Z,2.90
2023-05-18T15:29:56.101Z,3.17
2023-05-18T15:33:42.112Z,3.47
2023-05-18T15:37:23.972Z,3.08
2023-05-18T15:41:06.082Z,2.80
2023-05-18T15:44:48.300Z,3.08
2023-05-18T15:48:30.279Z,3.70
2023-05-18T15:52:12.185Z,3.97
2023-05-18T15:55:58.686Z,3.13
2023-05-18T15:59:41.472Z,3.40
2023-05-18T16:03:23.518Z,3.15
2023-05-18T16:07:05.851Z,3.70
2023-05-18T16:10:47.725Z,3.38
2023-05-18T16:14:29.611Z,3.33
2023-05-18T16:18:11.683Z,3.50
2023-05-18T16:21:53.992Z,3.65
2023-05-18T16:25:35.893Z,2.80
2023-05-18T16:29:17.732Z,3.78
2023-05-18T16:33:04.091Z,3.38
2023-05-18T16:36:46.223Z,3.80
2023-05-18T16:40:28.347Z,3.30
2023-05-18T16:44:10.276Z,4.25
2023-05-18T16:47:52.245Z,4.20
2023-05-18T16:51:34.205Z,3.47
2023-05-18T16:55:16.221Z,3.47
2023-05-18T16:58:58.130Z,3.30
2023-05-18T17:02:40.350Z,2.78
2023-05-18T17:06:22.408Z,4.10
2023-05-18T17:10:05.334Z,3.10
2023-05-18T17:13:47.216Z,3.75
2023-05-18T17:17:29.191Z,3.15
2023-05-18T17:21:11.074Z,2.97
2023-05-18T17:24:52.924Z,3.22
2023-05-18T17:28:34.783Z,3.45
2023-05-18T17:32:17.882Z,2.65
2023-05-18T17:35:59.868Z,3.20
2023-05-18T17:39:41.776Z,3.63
2023-05-18T17:43:23.620Z,3.95
2023-05-18T17:47:06.221Z,3.80
2023-05-18T17:50:48.129Z,3.58
2023-05-18T17:54:30.269Z,3.97
2023-05-18T17:58:12.315Z,3.85
2023-05-18T18:01:54.292Z,3.88
2023-05-18T18:05:36.498Z,3.60
2023-05-18T18:09:18.376Z,3.88
2023-05-18T18:13:00.501Z,3.30
2023-05-18T18:16:42.443Z,3.30
2023-05-18T18:20:24.476Z,4.63
2023-05-18T18:24:06.703Z,4.30
2023-05-18T18:27:48.536Z,4.13
2023-05-18T18:31:30.553Z,4.03
2023-05-18T18:35:13.053Z,3.20
2023-05-18T18:38:54.978Z,2.83
2023-05-18T18:42:36.906Z,3.13
2023-05-18T18:46:19.086Z,3.40
2023-05-18T18:50:01.128Z,3.00
2023-05-18T18:53:43.043Z,2.88
2023-05-18T18:57:25.236Z,3.03
2023-05-18T19:01:07.324Z,2.42
2023-05-18T19:04:49.360Z,2.90
2023-05-18T19:08:31.812Z,3.28
2023-05-18T19:12:13.672Z,3.22
2023-05-18T19:15:55.610Z,3.20
2023-05-18T19:19:37.987Z,3.05
2023-05-18T19:23:20.102Z,2.85
2023-05-18T19:27:02.604Z,3.20
2023-05-18T19:30:44.559Z,3.58
2023-05-18T19:34:26.453Z,3.40
2023-05-18T19:38:08.494Z,3.10
2023-05-18T19:41:50.630Z,3.25
2023-05-18T19:45:34.061Z,3.40
2023-05-18T19:49:16.474Z,2.88
2023-05-18T19:52:58.436Z,3.60
2023-05-18T19:56:40.522Z,3.53
2023-05-18T20:00:22.955Z,3.83
2023-05-18T20:04:05.450Z,3.28
2023-05-18T20:07:47.450Z,3.53
2023-05-18T20:11:29.279Z,2.95
2023-05-18T20:15:11.809Z,3.38
2023-05-18T20:18:53.796Z,3.58
2023-05-18T20:22:36.053Z,3.58
2023-05-18T20:26:18.843Z,3.30
2023-05-18T20:30:00.929Z,3.38
2023-05-18T20:33:44.451Z,3.17
2023-05-18T20:37:26.579Z,3.28
2023-05-18T20:41:09.724Z,3.17
2023-05-18T20:44:52.752Z,2.90
2023-05-18T20:48:35.913Z,2.83
2023-05-18T20:52:17.891Z,2.88
2023-05-18T20:56:01.410Z,3.80
2023-05-18T20:59:43.686Z,3.53
2023-05-18T21:03:25.726Z,2.33
2023-05-18T21:07:10.340Z,3.08
2023-05-18T21:10:52.188Z,2.78
2023-05-18T21:14:36.218Z,3.05
2023-05-18T21:18:20.875Z,3.63
2023-05-18T21:22:03.078Z,4.13
2023-05-18T21:25:44.925Z,3.60
2023-05-18T21:29:26.786Z,3.20
2023-05-18T21:33:08.812Z,3.03
2023-05-18T21:36:51.164Z,3.28
2023-05-18T21:40:33.475Z,3.08
2023-05-18T21:44:15.648Z,2.75
2023-05-18T21:47:57.727Z,2.42
2023-05-18T21:51:39.661Z,2.55
2023-05-18T21:55:21.558Z,3.03
2023-05-18T21:59:03.660Z,2.33
2023-05-18T22:02:45.652Z,2.72
2023-05-18T22:06:28.192Z,2.92
2023-05-18T22:10:11.241Z,2.92
2023-05-18T22:13:54.203Z,2.50
2023-05-18T22:17:36.814Z,3.30
2023-05-18T22:21:19.097Z,3.08
2023-05-18T22:25:01.165Z,3.45
2023-05-18T22:28:43.093Z,3.67
2023-05-18T22:32:25.188Z,4.03
2023-05-18T22:36:07.334Z,5.07
2023-05-18T22:39:49.167Z,4.90
2023-05-18T22:43:31.357Z,7.32
2023-05-18T22:47:13.622Z,7.07
2023-05-18T22:50:55.478Z,8.02
2023-05-18T22:54:37.319Z,7.57
2023-05-18T22:58:19.171Z,5.85
2023-05-18T23:02:01.247Z,4.20
2023-05-18T23:05:43.737Z,4.07
2023-05-18T23:09:30.517Z,3.88
2023-05-18T23:16:58.490Z,3.03
2023-05-18T23:20:41.631Z,2.40
2023-05-18T23:24:23.535Z,2.47
2023-05-18T23:28:05.495Z,2.70
2023-05-18T23:31:47.322Z,2.60
2023-05-18T23:35:29.605Z,2.90
2023-05-18T23:39:11.820Z,2.38
2023-05-18T23:42:54.006Z,2.72
2023-05-18T23:46:36.237Z,2.33
2023-05-18T23:50:18.550Z,2.88
2023-05-18T23:54:01.540Z,2.45
2023-05-18T23:57:43.809Z,2.08
